Time;durP1;ratioP1;P1;durP2;ratioP2;P2;SDS_P1;SDS_P2;PMS_P1;PMS_P2;Temp;Humidity;BMP_temperature;BMP_pressure;BME280_temperature;BME280_humidity;BME280_pressure;Samples;Min_cycle;Max_cycle;Signal;HPM_P1;HPM_P2
2022/07/11 00:00:17;;;;;;;1.00;1.00;;;16.50;99.90;;;;;;5042531;28;20044;-81
2022/07/11 00:02:42;;;;;;;1.88;1.35;;;16.40;99.90;;;;;;5041772;28;20729;-80
2022/07/11 00:05:09;;;;;;;1.40;1.25;;;16.50;99.90;;;;;;5041811;28;20029;-81
2022/07/11 00:07:36;;;;;;;4.13;1.25;;;16.50;99.90;;;;;;5042511;28;21004;-81
2022/07/11 00:10:03;;;;;;;2.78;1.48;;;16.50;99.90;;;;;;5041166;28;20130;-81
2022/07/11 00:12:29;;;;;;;3.92;1.02;;;16.60;99.90;;;;;;5041146;28;20060;-81
2022/07/11 00:14:55;;;;;;;3.13;1.38;;;16.50;99.90;;;;;;5041383;28;20040;-81
2022/07/11 00:17:20;;;;;;;2.15;1.50;;;16.50;99.90;;;;;;5042332;28;20127;-81
2022/07/11 00:19:46;;;;;;;2.45;1.52;;;16.50;99.90;;;;;;5041378;28;20621;-81
2022/07/11 00:22:12;;;;;;;2.58;0.80;;;16.40;99.90;;;;;;5042033;28;20033;-81
2022/07/11 00:24:37;;;;;;;2.08;1.30;;;16.50;99.90;;;;;;5041752;28;20043;-81
2022/07/11 00:27:03;;;;;;;1.55;0.93;;;16.50;99.90;;;;;;5042018;28;20619;-81
2022/07/11 00:29:29;;;;;;;1.95;1.52;;;16.50;99.90;;;;;;5040431;28;20126;-81
2022/07/11 00:31:55;;;;;;;1.50;1.40;;;16.50;99.90;;;;;;5041453;28;20523;-82
2022/07/11 00:34:21;;;;;;;9.18;1.75;;;16.50;99.90;;;;;;5041283;28;20071;-81
2022/07/11 00:36:46;;;;;;;1.77;1.55;;;16.60;99.90;;;;;;5041754;28;20048;-82
2022/07/11 00:39:12;;;;;;;3.08;1.52;;;16.50;99.90;;;;;;5042039;28;20068;-81
2022/07/11 00:41:38;;;;;;;2.05;1.38;;;16.60;99.90;;;;;;5040733;28;20053;-81
2022/07/11 00:44:03;;;;;;;1.70;1.60;;;16.60;99.90;;;;;;5040047;28;20049;-81
2022/07/11 00:46:30;;;;;;;2.60;1.38;;;16.60;99.90;;;;;;5040217;28;20472;-81
2022/07/11 00:48:56;;;;;;;1.95;1.77;;;16.60;99.90;;;;;;5038851;28;20539;-82
2022/07/11 00:51:23;;;;;;;2.55;1.83;;;16.60;99.90;;;;;;5040214;28;20136;-81
2022/07/11 00:53:51;;;;;;;3.88;1.52;;;16.60;99.90;;;;;;5041605;28;20040;-81
2022/07/11 00:56:22;;;;;;;1.23;1.13;;;16.60;99.90;;;;;;5040414;28;20072;-81
2022/07/11 00:58:48;;;;;;;1.27;0.90;;;16.60;99.90;;;;;;5041933;28;20048;-81
2022/07/11 01:01:14;;;;;;;1.30;1.05;;;16.60;99.90;;;;;;5041367;28;20041;-80
2022/07/11 01:03:40;;;;;;;3.53;1.48;;;16.60;99.90;;;;;;5040890;28;20045;-81
2022/07/11 01:06:07;;;;;;;0.98;0.98;;;16.60;99.90;;;;;;5041282;28;20106;-81
2022/07/11 01:08:37;;;;;;;0.90;0.90;;;16.60;99.90;;;;;;5041320;28;20041;-81
2022/07/11 01:13:28;;;;;;;1.70;1.60;;;16.60;99.90;;;;;;5025528;22;20531;-81
2022/07/11 01:16:14;;;;;;;1.73;1.35;;;16.60;99.90;;;;;;5019462;28;20049;-82
2022/07/11 01:18:42;;;;;;;2.60;1.23;;;16.60;99.90;;;;;;5001981;28;20052;-80
2022/07/11 01:21:45;;;;;;;2.03;1.20;;;16.60;99.90;;;;;;5019526;28;20496;-80
2022/07/11 01:24:11;;;;;;;1.70;1.40;;;16.60;99.90;;;;;;5018309;28;20064;-81
2022/07/11 01:26:37;;;;;;;1.52;1.42;;;16.60;99.90;;;;;;5019288;28;20033;-81
2022/07/11 01:29:08;;;;;;;1.20;1.10;;;16.60;99.90;;;;;;5018721;28;20499;-81
2022/07/11 01:31:34;;;;;;;4.63;1.50;;;16.60;99.90;;;;;;5020105;28;20168;-81
2022/07/11 01:34:00;;;;;;;3.50;1.30;;;16.60;99.90;;;;;;5018162;28;20375;-81
2022/07/11 01:36:26;;;;;;;5.85;1.77;;;16.50;99.90;;;;;;5019925;28;20045;-82
2022/07/11 01:38:51;;;;;;;1.38;1.20;;;16.60;99.90;;;;;;5018044;28;20041;-81
2022/07/11 01:41:17;;;;;;;4.00;0.93;;;16.50;99.90;;;;;;5019751;28;20112;-81
2022/07/11 01:43:42;;;;;;;1.42;1.17;;;16.50;99.90;;;;;;5020367;28;20629;-81
2022/07/11 01:46:08;;;;;;;1.70;0.90;;;16.50;99.90;;;;;;5020256;28;20052;-81
2022/07/11 01:48:33;;;;;;;1.58;1.48;;;16.50;99.90;;;;;;5019962;28;20056;-81
2022/07/11 01:50:59;;;;;;;1.02;0.93;;;16.50;99.90;;;;;;5019513;28;20057;-81
2022/07/11 01:53:25;;;;;;;1.17;0.90;;;16.50;99.90;;;;;;5020557;28;20052;-81
2022/07/11 01:55:50;;;;;;;1.60;1.10;;;16.50;99.90;;;;;;5020465;28;20048;-81
2022/07/11 01:58:16;;;;;;;0.95;0.70;;;16.50;99.90;;;;;;5019601;28;20642;-81
2022/07/11 02:00:42;;;;;;;0.95;0.85;;;16.50;99.90;;;;;;5020957;28;20037;-80
2022/07/11 02:03:08;;;;;;;3.53;1.55;;;16.50;99.90;;;;;;5020309;28;20061;-81
2022/07/11 02:05:34;;;;;;;1.38;1.23;;;16.50;99.90;;;;;;5019762;28;20079;-81
2022/07/11 02:08:11;;;;;;;0.70;0.70;;;16.40;99.90;;;;;;5018216;28;20080;-81
2022/07/11 02:10:38;;;;;;;2.22;1.02;;;16.40;99.90;;;;;;5020866;28;20389;-81
2022/07/11 02:13:04;;;;;;;4.47;1.65;;;16.50;99.90;;;;;;5018226;28;20100;-81
2022/07/11 02:15:30;;;;;;;2.65;1.15;;;16.50;99.90;;;;;;5019975;28;20073;-80
2022/07/11 02:17:56;;;;;;;1.33;1.23;;;16.50;99.90;;;;;;5019759;28;20037;-81
2022/07/11 02:20:24;;;;;;;2.85;1.50;;;16.50;99.90;;;;;;5019705;28;20100;-81
2022/07/11 02:22:50;;;;;;;4.32;1.65;;;16.40;99.90;;;;;;5018148;28;20161;-81
2022/07/11 02:25:16;;;;;;;0.85;0.75;;;16.50;99.90;;;;;;5020441;28;20527;-81
2022/07/11 02:27:42;;;;;;;1.25;0.98;;;16.40;99.90;;;;;;5020628;28;20548;-81
2022/07/11 02:30:09;;;;;;;1.25;1.10;;;16.50;99.90;;;;;;5018365;28;20049;-80
2022/07/11 02:32:34;;;;;;;0.98;0.93;;;16.40;99.90;;;;;;5020463;28;20045;-81
2022/07/11 02:35:00;;;;;;;1.58;1.25;;;16.40;99.90;;;;;;5019135;28;20045;-81
2022/07/11 02:37:26;;;;;;;2.33;1.67;;;16.40;99.90;;;;;;5019697;28;20103;-81
2022/07/11 02:39:52;;;;;;;1.15;1.00;;;16.40;99.90;;;;;;5020448;28;20087;-81
2022/07/11 02:42:21;;;;;;;3.00;1.67;;;16.40;99.90;;;;;;5018648;28;20589;-81
2022/07/11 02:44:46;;;;;;;2.03;0.70;;;16.40;99.90;;;;;;5019790;28;20456;-81
2022/07/11 02:47:14;;;;;;;1.10;1.00;;;16.40;99.90;;;;;;5018999;28;20140;-80
2022/07/11 02:49:39;;;;;;;1.45;0.63;;;16.40;99.90;;;;;;5019827;28;20041;-81
2022/07/11 02:52:05;;;;;;;1.75;1.08;;;16.40;99.90;;;;;;5018610;28;20042;-81
2022/07/11 02:54:31;;;;;;;2.63;1.08;;;16.40;99.90;;;;;;5019970;28;20049;-81
2022/07/11 02:56:57;;;;;;;2.70;1.05;;;16.40;99.90;;;;;;5018679;28;20090;-81
2022/07/11 02:59:22;;;;;;;1.67;1.08;;;16.40;99.90;;;;;;5018729;28;20121;-81
2022/07/11 03:01:49;;;;;;;1.42;0.95;;;16.40;99.90;;;;;;5019794;28;20072;-82
2022/07/11 03:04:15;;;;;;;1.05;0.82;;;16.40;99.90;;;;;;5019317;28;20100;-81
2022/07/11 03:06:41;;;;;;;0.75;0.50;;;16.40;99.90;;;;;;5020901;28;20706;-80
2022/07/11 03:09:08;;;;;;;2.58;1.58;;;16.40;99.90;;;;;;5019552;28;20041;-80
2022/07/11 03:11:34;;;;;;;1.20;1.02;;;16.40;99.90;;;;;;5018390;28;20570;-80
2022/07/11 03:14:00;;;;;;;0.70;0.70;;;16.40;99.90;;;;;;5004963;28;20048;-80
2022/07/11 03:16:27;;;;;;;2.00;1.00;;;16.30;99.90;;;;;;5018004;28;20117;-82
2022/07/11 03:18:52;;;;;;;1.63;1.20;;;16.30;99.90;;;;;;5019493;28;20081;-81
2022/07/11 03:21:18;;;;;;;0.90;0.70;;;16.30;99.90;;;;;;5022870;28;20083;-80
2022/07/11 03:23:44;;;;;;;2.78;0.77;;;16.20;99.90;;;;;;5023004;28;20056;-81
2022/07/11 03:26:09;;;;;;;0.90;0.63;;;16.20;99.90;;;;;;5023816;28;20100;-81
2022/07/11 03:28:35;;;;;;;0.88;0.82;;;16.20;99.90;;;;;;5021673;28;20704;-81
2022/07/11 03:31:00;;;;;;;1.77;0.93;;;16.20;99.90;;;;;;5022946;28;20060;-81
2022/07/11 03:33:27;;;;;;;1.45;0.80;;;16.20;99.90;;;;;;5022679;28;20045;-81
2022/07/11 03:35:52;;;;;;;0.47;0.47;;;16.20;99.90;;;;;;5022759;28;20042;-81
2022/07/11 03:38:19;;;;;;;0.98;0.60;;;16.20;99.90;;;;;;5022912;28;20026;-81
2022/07/11 03:40:45;;;;;;;0.52;0.43;;;16.20;99.90;;;;;;5023011;28;20048;-81
2022/07/11 03:43:11;;;;;;;1.08;0.63;;;16.20;99.90;;;;;;5022238;28;20698;-81
2022/07/11 03:45:37;;;;;;;0.57;0.57;;;16.10;99.90;;;;;;5023330;28;20048;-82
2022/07/11 03:48:03;;;;;;;0.55;0.55;;;16.10;99.90;;;;;;5021511;28;20042;-82
2022/07/11 03:50:32;;;;;;;1.17;0.57;;;16.10;99.90;;;;;;5021203;28;20053;-83
2022/07/11 03:52:58;;;;;;;1.83;0.82;;;16.20;99.90;;;;;;5021828;28;20045;-83
2022/07/11 03:55:24;;;;;;;0.45;0.45;;;16.10;99.90;;;;;;5021061;28;20112;-82
2022/07/11 03:57:50;;;;;;;0.68;0.68;;;16.10;99.90;;;;;;5022257;28;20487;-84
2022/07/11 04:00:16;;;;;;;0.40;0.40;;;16.10;99.90;;;;;;5022924;28;20040;-82
2022/07/11 04:02:42;;;;;;;0.32;0.32;;;16.10;99.90;;;;;;5022789;28;20142;-83
2022/07/11 04:05:08;;;;;;;1.63;0.60;;;16.10;99.90;;;;;;5020691;28;20077;-83
2022/07/11 04:07:33;;;;;;;0.17;0.17;;;16.10;99.90;;;;;;5021071;28;20287;-83
2022/07/11 04:09:59;;;;;;;0.43;0.43;;;16.10;99.90;;;;;;5022198;28;20042;-83
2022/07/11 04:12:24;;;;;;;4.43;0.50;;;16.10;99.90;;;;;;5021986;28;20100;-83
2022/07/11 04:14:50;;;;;;;1.00;0.73;;;16.20;99.90;;;;;;5020528;28;20049;-83
2022/07/11 04:17:16;;;;;;;1.48;0.73;;;16.20;99.90;;;;;;5021169;28;20678;-83
2022/07/11 04:19:42;;;;;;;1.48;0.73;;;16.20;99.90;;;;;;5022143;28;20033;-83
2022/07/11 04:22:09;;;;;;;1.05;0.82;;;16.20;99.90;;;;;;5021755;28;20111;-83
2022/07/11 04:24:34;;;;;;;0.55;0.50;;;16.20;99.90;;;;;;5001390;28;20042;-82
2022/07/11 04:27:00;;;;;;;0.73;0.73;;;16.20;99.90;;;;;;5019446;28;20041;-84
2022/07/11 04:29:26;;;;;;;1.20;0.47;;;16.20;99.90;;;;;;5021914;28;20523;-84
2022/07/11 04:31:52;;;;;;;1.23;0.85;;;16.20;99.90;;;;;;5020819;28;20168;-83
2022/07/11 04:34:17;;;;;;;1.63;0.70;;;16.20;99.90;;;;;;5021312;28;20041;-84
2022/07/11 04:36:44;;;;;;;0.30;0.30;;;16.20;99.90;;;;;;5021076;28;20049;-84
2022/07/11 04:39:13;;;;;;;0.47;0.47;;;16.20;99.90;;;;;;5017285;28;20071;-84
2022/07/11 04:41:39;;;;;;;2.03;0.88;;;16.20;99.90;;;;;;5003629;28;20049;-84
2022/07/11 04:44:05;;;;;;;0.52;0.40;;;16.10;99.90;;;;;;5021141;28;20056;-86
2022/07/11 04:46:31;;;;;;;2.22;0.45;;;16.10;99.90;;;;;;5021883;28;20060;-85
2022/07/11 04:48:57;;;;;;;0.30;0.30;;;16.20;99.90;;;;;;5020578;28;20041;-84
2022/07/11 04:51:26;;;;;;;0.60;0.60;;;16.10;99.90;;;;;;5019747;28;20044;-84
2022/07/11 04:53:52;;;;;;;1.35;0.55;;;16.10;99.90;;;;;;5021377;28;20617;-84
2022/07/11 04:56:18;;;;;;;0.30;0.30;;;16.10;99.90;;;;;;5021730;28;20033;-85
2022/07/11 04:58:43;;;;;;;0.68;0.55;;;16.10;99.90;;;;;;5021953;28;20236;-79
2022/07/11 05:01:09;;;;;;;0.50;0.50;;;16.10;99.90;;;;;;5021723;28;20041;-85
2022/07/11 05:03:36;;;;;;;1.58;0.60;;;16.10;99.90;;;;;;5020859;28;20132;-85
2022/07/11 05:06:02;;;;;;;1.45;0.73;;;16.10;99.90;;;;;;5021516;28;20041;-86
2022/07/11 05:08:29;;;;;;;1.20;0.85;;;16.00;99.90;;;;;;5021286;28;20083;-85
2022/07/11 05:10:55;;;;;;;0.30;0.30;;;16.00;99.90;;;;;;5021645;28;20044;-86
2022/07/11 05:13:20;;;;;;;0.65;0.65;;;16.10;99.90;;;;;;5020697;28;20144;-86
2022/07/11 05:15:46;;;;;;;1.25;0.98;;;16.10;99.90;;;;;;5020773;28;20045;-86
2022/07/11 05:18:11;;;;;;;1.08;0.57;;;16.10;99.90;;;;;;5021089;28;20041;-85
2022/07/11 05:20:37;;;;;;;0.52;0.52;;;16.20;99.90;;;;;;5019157;28;20092;-84
2022/07/11 05:23:03;;;;;;;0.47;0.47;;;16.20;99.90;;;;;;5011889;28;20363;-85
2022/07/11 05:25:29;;;;;;;0.77;0.73;;;16.20;99.90;;;;;;5006256;28;20095;-86
2022/07/11 05:27:54;;;;;;;0.77;0.70;;;16.20;99.90;;;;;;5007822;28;20045;-84
2022/07/11 05:30:20;;;;;;;0.55;0.40;;;16.20;99.90;;;;;;5020845;28;20104;-85
2022/07/11 05:32:46;;;;;;;0.40;0.40;;;16.20;99.90;;;;;;5021014;28;20491;-85
2022/07/11 05:35:11;;;;;;;0.45;0.45;;;16.20;99.90;;;;;;5021419;28;20419;-86
2022/07/11 05:37:37;;;;;;;0.50;0.50;;;16.20;99.90;;;;;;5020821;28;20490;-84
2022/07/11 05:40:03;;;;;;;0.55;0.30;;;16.20;99.90;;;;;;5006816;28;20124;-84
2022/07/11 05:42:28;;;;;;;0.20;0.20;;;16.20;99.90;;;;;;5021149;28;20448;-85
2022/07/11 05:44:54;;;;;;;0.40;0.40;;;16.20;99.90;;;;;;5019504;28;20480;-85
2022/07/11 05:47:20;;;;;;;0.13;0.13;;;16.20;99.90;;;;;;5020199;28;20144;-85
2022/07/11 05:49:45;;;;;;;0.22;0.22;;;16.20;99.90;;;;;;5020268;28;20053;-83
2022/07/11 05:52:11;;;;;;;0.40;0.40;;;16.20;99.90;;;;;;5021043;28;20045;-81
2022/07/11 05:54:36;;;;;;;1.85;0.30;;;16.20;99.90;;;;;;5013902;28;20046;-86
2022/07/11 05:57:02;;;;;;;0.20;0.20;;;16.20;99.90;;;;;;5019873;28;20088;-83
2022/07/11 05:59:28;;;;;;;0.25;0.25;;;16.20;99.90;;;;;;5019154;28;20124;-83
2022/07/11 06:01:54;;;;;;;0.55;0.32;;;16.20;99.90;;;;;;5020566;28;20745;-83
2022/07/11 06:04:19;;;;;;;0.43;0.30;;;16.20;99.90;;;;;;5016799;28;20041;-83
2022/07/11 06:06:45;;;;;;;0.77;0.57;;;16.20;99.90;;;;;;5019299;28;20042;-85
2022/07/11 06:09:11;;;;;;;0.32;0.32;;;16.20;99.90;;;;;;5019600;28;20437;-84
2022/07/11 06:11:36;;;;;;;1.00;0.82;;;16.20;99.90;;;;;;5019035;28;20053;-84
2022/07/11 06:14:02;;;;;;;0.57;0.57;;;16.20;99.90;;;;;;5002269;28;20603;-85
2022/07/11 06:16:28;;;;;;;0.98;0.60;;;16.20;99.90;;;;;;5018663;28;20041;-85
2022/07/11 06:18:54;;;;;;;0.55;0.47;;;16.20;99.90;;;;;;5019495;28;20136;-84
2022/07/11 06:21:22;;;;;;;0.50;0.40;;;16.30;99.90;;;;;;5019164;28;20049;-85
2022/07/11 06:23:48;;;;;;;0.57;0.47;;;16.30;99.90;;;;;;5019279;28;20563;-85
2022/07/11 06:26:15;;;;;;;0.50;0.50;;;16.30;99.90;;;;;;5020732;28;20135;-86
2022/07/11 06:28:41;;;;;;;0.43;0.43;;;16.30;99.90;;;;;;5019950;28;20041;-85
2022/07/11 06:31:07;;;;;;;0.75;0.40;;;16.40;99.90;;;;;;5018438;28;20055;-85
2022/07/11 06:33:33;;;;;;;4.55;0.50;;;16.40;99.90;;;;;;5019703;28;20038;-85
2022/07/11 06:35:59;;;;;;;0.82;0.40;;;16.40;99.90;;;;;;5009146;28;20045;-85
2022/07/11 06:38:24;;;;;;;1.95;0.75;;;16.40;99.90;;;;;;5019320;28;20476;-85
2022/07/11 06:40:50;;;;;;;1.92;0.57;;;16.40;99.90;;;;;;5020372;28;20045;-85
2022/07/11 06:43:16;;;;;;;0.10;0.10;;;16.40;99.90;;;;;;5019540;28;20125;-85
2022/07/11 06:45:41;;;;;;;0.98;0.25;;;16.50;99.90;;;;;;5020122;28;20038;-85
2022/07/11 06:48:07;;;;;;;0.43;0.28;;;16.60;99.90;;;;;;5019850;28;20187;-85
2022/07/11 06:50:33;;;;;;;0.13;0.13;;;16.70;99.90;;;;;;5020030;28;20050;-84
2022/07/11 06:52:59;;;;;;;2.83;0.35;;;16.70;99.90;;;;;;5022929;28;20046;-90
2022/07/11 06:55:25;;;;;;;0.20;0.20;;;16.70;99.90;;;;;;5020298;28;20117;-85
2022/07/11 06:57:50;;;;;;;0.20;0.20;;;16.70;99.90;;;;;;5018994;28;20113;-83
2022/07/11 07:00:19;;;;;;;0.82;0.50;;;16.70;99.90;;;;;;5022512;28;20145;-95
2022/07/11 07:02:46;;;;;;;0.38;0.38;;;16.70;99.90;;;;;;5019411;28;20128;-95
2022/07/11 07:05:17;;;;;;;0.13;0.13;;;16.70;99.90;;;;;;5027218;28;20420;-85
2022/07/11 07:07:43;;;;;;;0.20;0.20;;;16.80;99.90;;;;;;5022661;28;20408;-86
2022/07/11 07:10:09;;;;;;;0.30;0.20;;;16.80;99.90;;;;;;5001103;28;20058;-86
2022/07/11 07:12:39;;;;;;;0.00;0.00;;;16.80;99.90;;;;;;5020103;28;20728;-86
2022/07/11 07:15:05;;;;;;;0.40;0.40;;;16.80;99.90;;;;;;5023325;28;20056;-82
2022/07/11 07:17:31;;;;;;;0.40;0.40;;;16.80;99.90;;;;;;5019842;28;20450;-81
2022/07/11 07:19:57;;;;;;;0.13;0.13;;;16.80;99.90;;;;;;5021866;28;20143;-81
2022/07/11 07:22:22;;;;;;;0.20;0.20;;;16.90;99.90;;;;;;5021619;28;20425;-81
2022/07/11 07:24:48;;;;;;;0.52;0.32;;;17.00;99.90;;;;;;5022256;28;20041;-83
2022/07/11 07:27:14;;;;;;;0.20;0.20;;;17.00;99.90;;;;;;5020624;28;20335;-83
2022/07/11 07:29:40;;;;;;;0.20;0.20;;;17.10;99.90;;;;;;5017888;28;20472;-85
2022/07/11 07:32:06;;;;;;;3.20;0.20;;;17.10;99.90;;;;;;5012299;28;20575;-84
2022/07/11 07:34:32;;;;;;;0.30;0.30;;;17.20;99.90;;;;;;5011540;28;20057;-83
2022/07/11 07:36:58;;;;;;;0.10;0.10;;;17.20;99.90;;;;;;5010860;28;20408;-81
2022/07/11 07:39:24;;;;;;;0.28;0.28;;;17.20;99.90;;;;;;5011763;28;20492;-81
2022/07/11 07:41:49;;;;;;;1.45;0.30;;;17.20;99.90;;;;;;5010607;28;20034;-82
2022/07/11 07:44:15;;;;;;;0.40;0.17;;;17.20;99.90;;;;;;5009936;28;20064;-82
2022/07/11 07:46:41;;;;;;;0.13;0.13;;;17.20;99.90;;;;;;5011973;28;20334;-81
2022/07/11 07:49:06;;;;;;;0.10;0.10;;;17.30;99.90;;;;;;5009151;28;20186;-80
2022/07/11 07:51:33;;;;;;;0.25;0.25;;;17.30;99.90;;;;;;5009073;28;20479;-82
2022/07/11 07:53:58;;;;;;;0.20;0.20;;;17.20;99.90;;;;;;5011302;28;20103;-81
2022/07/11 07:56:24;;;;;;;0.30;0.20;;;17.20;99.90;;;;;;5010015;28;20042;-80
2022/07/11 07:58:51;;;;;;;0.20;0.20;;;17.20;99.90;;;;;;4993032;28;20496;-81
2022/07/11 08:01:35;;;;;;;0.20;0.20;;;17.20;99.90;;;;;;5007673;28;20034;-82
2022/07/11 08:04:02;;;;;;;0.30;0.30;;;17.10;99.90;;;;;;5001591;28;20053;-84
2022/07/11 08:06:28;;;;;;;0.10;0.10;;;17.10;99.90;;;;;;5002189;28;20485;-84
2022/07/11 08:08:53;;;;;;;0.20;0.20;;;17.10;99.90;;;;;;4992346;28;20288;-83
2022/07/11 08:11:19;;;;;;;0.45;0.45;;;17.10;99.90;;;;;;5022880;28;20430;-84
2022/07/11 08:13:45;;;;;;;0.10;0.10;;;17.10;99.90;;;;;;5014001;28;20046;-84
2022/07/11 08:16:10;;;;;;;0.47;0.47;;;17.20;99.90;;;;;;5034315;28;20115;-83
2022/07/11 08:18:36;;;;;;;0.28;0.28;;;17.20;99.90;;;;;;5015476;28;20116;-84
2022/07/11 08:21:02;;;;;;;0.10;0.10;;;17.20;99.90;;;;;;5013348;28;20119;-84
2022/07/11 08:23:28;;;;;;;0.10;0.10;;;17.20;99.90;;;;;;5019248;28;20558;-87
2022/07/11 08:25:53;;;;;;;0.17;0.10;;;17.20;99.90;;;;;;5015640;28;20049;-86
2022/07/11 08:28:19;;;;;;;0.17;0.17;;;17.30;99.90;;;;;;5021115;28;20045;-87
2022/07/11 08:30:45;;;;;;;0.20;0.13;;;17.30;99.90;;;;;;5014488;28;20064;-85
2022/07/11 08:33:11;;;;;;;0.10;0.10;;;17.40;99.90;;;;;;5007118;28;20125;-86
2022/07/11 08:35:37;;;;;;;0.45;0.20;;;17.50;99.90;;;;;;5016806;28;20053;-86
2022/07/11 08:38:02;;;;;;;0.30;0.30;;;17.60;99.90;;;;;;5012863;28;20076;-86
2022/07/11 08:40:28;;;;;;;0.20;0.20;;;17.70;99.90;;;;;;5010463;28;20064;-87
2022/07/11 08:42:56;;;;;;;0.30;0.30;;;17.70;99.90;;;;;;5010382;28;20125;-86
2022/07/11 08:45:28;;;;;;;0.10;0.10;;;17.80;99.90;;;;;;5016191;28;20049;-86
2022/07/11 08:47:54;;;;;;;0.20;0.20;;;17.80;99.90;;;;;;5012873;28;20084;-86
2022/07/11 08:50:22;;;;;;;0.30;0.30;;;17.70;99.90;;;;;;5021867;28;20048;-87
2022/07/11 08:52:48;;;;;;;0.17;0.17;;;17.60;99.90;;;;;;5020765;28;20041;-86
2022/07/11 08:55:13;;;;;;;0.40;0.30;;;17.60;99.90;;;;;;5021378;28;20114;-81
2022/07/11 08:57:39;;;;;;;0.40;0.35;;;17.60;99.90;;;;;;5014309;28;20622;-84
2022/07/11 09:00:08;;;;;;;0.10;0.10;;;17.60;99.90;;;;;;5018141;28;21551;-85
2022/07/11 09:02:33;;;;;;;0.60;0.20;;;17.60;99.90;;;;;;5020589;28;20302;-85
2022/07/11 09:05:02;;;;;;;2.58;0.40;;;17.60;99.90;;;;;;5019910;28;20045;-85
2022/07/11 09:07:29;;;;;;;0.10;0.10;;;17.60;99.90;;;;;;5016266;28;20046;-84
2022/07/11 09:09:54;;;;;;;0.30;0.20;;;17.70;99.90;;;;;;5021281;28;20090;-85
2022/07/11 09:12:20;;;;;;;0.10;0.10;;;17.80;99.90;;;;;;5016817;28;20494;-85
2022/07/11 09:14:53;;;;;;;1.02;0.22;;;17.80;99.90;;;;;;5020922;28;20037;-85
2022/07/11 09:17:27;;;;;;;0.22;0.22;;;17.90;99.90;;;;;;5009756;28;20722;-84
2022/07/11 09:19:53;;;;;;;0.10;0.10;;;18.00;99.90;;;;;;5010376;28;20539;-84
2022/07/11 09:25:31;;;;;;;0.43;0.43;;;18.00;99.90;;;;;;5021361;28;20061;-83
2022/07/11 09:28:04;;;;;;;0.10;0.10;;;18.00;99.90;;;;;;5019690;28;20088;-83
2022/07/11 09:30:42;;;;;;;0.50;0.30;;;18.00;99.90;;;;;;5019530;28;20049;-83
2022/07/11 09:33:10;;;;;;;0.20;0.20;;;18.00;99.90;;;;;;5013248;28;20092;-84
2022/07/11 09:35:45;;;;;;;0.30;0.30;;;18.00;99.90;;;;;;5020696;28;20041;-83
2022/07/11 09:38:17;;;;;;;0.30;0.20;;;18.00;99.90;;;;;;5018857;28;20484;-82
2022/07/11 09:40:44;;;;;;;0.20;0.20;;;18.00;99.90;;;;;;5004208;28;20042;-82
2022/07/11 09:43:10;;;;;;;0.00;0.00;;;18.00;99.90;;;;;;5008958;28;20045;-83
2022/07/11 09:45:36;;;;;;;0.28;0.28;;;18.00;99.90;;;;;;5018601;28;20045;-82
2022/07/11 09:48:11;;;;;;;1.58;0.30;;;18.00;99.90;;;;;;5016419;28;20037;-83
2022/07/11 09:50:39;;;;;;;0.10;0.10;;;18.10;99.90;;;;;;5008752;28;20042;-82
2022/07/11 09:53:14;;;;;;;0.40;0.30;;;18.20;99.90;;;;;;5019441;28;20067;-83
2022/07/11 09:55:42;;;;;;;0.20;0.20;;;18.20;99.90;;;;;;5002273;28;20045;-83
2022/07/11 09:58:09;;;;;;;0.20;0.20;;;18.30;99.90;;;;;;5006516;28;20037;-83
2022/07/11 10:00:37;;;;;;;0.10;0.10;;;18.30;99.90;;;;;;5020110;28;20037;-82
2022/07/11 10:03:04;;;;;;;0.20;0.20;;;18.40;99.90;;;;;;5019453;28;20045;-90
2022/07/11 10:05:30;;;;;;;0.38;0.38;;;18.30;99.90;;;;;;5020416;28;20041;-82
2022/07/11 10:07:57;;;;;;;1.05;0.22;;;18.30;99.90;;;;;;5019417;28;20045;-83
2022/07/11 10:10:23;;;;;;;1.67;0.30;;;18.40;99.90;;;;;;5018640;28;20068;-83
2022/07/11 10:12:51;;;;;;;0.55;0.32;;;18.40;99.90;;;;;;5008472;28;20117;-83
2022/07/11 10:15:22;;;;;;;0.10;0.10;;;18.50;99.90;;;;;;5016165;28;20049;-83
2022/07/11 10:18:03;;;;;;;0.50;0.50;;;18.50;99.90;;;;;;4997359;28;20136;-83
2022/07/11 10:20:53;;;;;;;0.20;0.20;;;18.60;99.90;;;;;;5018878;28;20326;-83
2022/07/11 10:23:37;;;;;;;0.30;0.30;;;18.60;99.90;;;;;;5001212;28;20431;-84
2022/07/11 10:26:47;;;;;;;0.43;0.32;;;18.60;99.90;;;;;;5019099;28;20037;-83
2022/07/11 10:29:29;;;;;;;0.30;0.30;;;18.70;99.90;;;;;;5018535;28;20095;-82
2022/07/11 10:32:24;;;;;;;0.10;0.10;;;18.70;99.90;;;;;;5019972;28;20041;-81
2022/07/11 10:35:10;;;;;;;1.15;0.65;;;18.70;99.90;;;;;;4998002;28;20530;-81
2022/07/11 10:37:50;;;;;;;0.50;0.50;;;18.70;99.90;;;;;;5022849;28;20042;-80
2022/07/11 10:40:49;;;;;;;0.65;0.20;;;18.70;99.90;;;;;;5022103;28;20057;-80
2022/07/11 10:43:36;;;;;;;0.13;0.13;;;18.70;99.90;;;;;;5001450;28;20034;-80
2022/07/11 10:46:01;;;;;;;0.60;0.20;;;18.80;99.90;;;;;;5002933;28;20042;-79
2022/07/11 10:48:30;;;;;;;0.38;0.38;;;18.80;99.90;;;;;;5001618;28;20104;-80
2022/07/11 10:51:21;;;;;;;0.25;0.25;;;18.90;99.90;;;;;;5007584;28;20120;-81
2022/07/11 10:53:49;;;;;;;0.20;0.20;;;18.90;99.90;;;;;;5023246;28;20107;-80
2022/07/11 10:56:29;;;;;;;0.20;0.20;;;19.00;99.90;;;;;;5023337;28;20033;-80
2022/07/11 10:59:14;;;;;;;4.18;0.55;;;18.90;99.90;;;;;;5022943;28;20041;-83
2022/07/11 11:02:03;;;;;;;0.43;0.40;;;19.00;99.90;;;;;;5022791;28;20065;-83
2022/07/11 11:04:48;;;;;;;0.40;0.40;;;19.00;99.90;;;;;;5019412;28;20038;-83
2022/07/11 11:07:34;;;;;;;0.28;0.20;;;19.00;99.90;;;;;;5022042;28;20045;-87
2022/07/11 11:10:01;;;;;;;0.30;0.30;;;19.00;99.90;;;;;;5030691;28;20377;-94
2022/07/11 11:13:04;;;;;;;0.10;0.10;;;19.00;99.90;;;;;;5016672;28;20050;-96
2022/07/11 11:15:44;;;;;;;0.43;0.30;;;19.00;99.90;;;;;;5008145;28;20121;-95
2022/07/11 11:18:25;;;;;;;0.17;0.17;;;19.00;99.90;;;;;;5009591;28;20068;-96
2022/07/11 11:21:02;;;;;;;0.20;0.20;;;19.00;99.90;;;;;;5022869;28;20073;-92
2022/07/11 11:23:35;;;;;;;0.40;0.40;;;19.00;99.90;;;;;;5037391;28;20495;-96
2022/07/11 11:26:05;;;;;;;0.10;0.10;;;19.00;99.90;;;;;;5012689;28;20160;-88
2022/07/11 11:28:31;;;;;;;0.30;0.30;;;19.10;99.90;;;;;;5042022;28;20542;-91
2022/07/11 11:31:03;;;;;;;0.20;0.20;;;19.20;99.90;;;;;;5012915;28;20037;-91
2022/07/11 11:33:32;;;;;;;0.17;0.17;;;19.30;99.90;;;;;;5011288;28;20341;-93
2022/07/11 11:36:09;;;;;;;0.30;0.30;;;19.20;99.90;;;;;;5012202;28;20037;-92
2022/07/11 11:38:40;;;;;;;0.35;0.30;;;19.30;99.90;;;;;;5012413;28;20049;-81
2022/07/11 11:41:07;;;;;;;0.32;0.32;;;19.30;99.90;;;;;;5009724;28;20030;-80
2022/07/11 11:43:34;;;;;;;0.20;0.20;;;19.30;99.90;;;;;;5011024;28;20465;-80
2022/07/11 11:46:00;;;;;;;1.92;0.25;;;19.30;99.90;;;;;;5010716;28;20361;-80
2022/07/11 11:48:31;;;;;;;0.43;0.35;;;19.30;99.90;;;;;;5008071;28;20050;-79
2022/07/11 11:51:02;;;;;;;0.30;0.30;;;19.40;99.90;;;;;;5011991;28;20045;-91
2022/07/11 11:53:29;;;;;;;0.30;0.30;;;19.40;99.90;;;;;;5017613;28;20042;-90
2022/07/11 11:55:55;;;;;;;0.28;0.28;;;19.50;99.90;;;;;;5014584;28;20041;-90
2022/07/11 11:58:20;;;;;;;0.25;0.25;;;19.50;99.90;;;;;;5009937;28;20099;-88
2022/07/11 12:00:56;;;;;;;0.45;0.45;;;19.50;99.90;;;;;;5011561;28;20034;-91
2022/07/11 12:03:21;;;;;;;0.70;0.70;;;19.50;99.90;;;;;;5009995;28;20074;-90
2022/07/11 12:05:57;;;;;;;0.45;0.45;;;19.50;99.90;;;;;;5009616;28;20083;-88
2022/07/11 12:08:29;;;;;;;0.70;0.70;;;19.50;99.90;;;;;;5012066;28;20045;-89
2022/07/11 12:10:55;;;;;;;0.40;0.40;;;19.50;99.90;;;;;;5011584;28;20432;-90
2022/07/11 12:13:22;;;;;;;0.45;0.45;;;19.50;99.90;;;;;;5012076;28;20463;-90
2022/07/11 12:18:38;;;;;;;0.22;0.22;;;19.60;99.90;;;;;;5008433;28;20076;-88
2022/07/11 12:21:12;;;;;;;0.20;0.20;;;19.70;99.90;;;;;;5014485;28;20103;-90
2022/07/11 12:23:38;;;;;;;0.22;0.22;;;19.70;99.90;;;;;;5014606;28;20046;-83
2022/07/11 12:26:04;;;;;;;0.47;0.47;;;19.70;99.90;;;;;;5011712;28;20042;-87
2022/07/11 12:28:32;;;;;;;0.40;0.35;;;19.70;99.90;;;;;;5020339;28;20419;-79
2022/07/11 12:30:58;;;;;;;0.43;0.43;;;19.70;99.90;;;;;;5017636;28;20026;-79
2022/07/11 12:33:24;;;;;;;0.68;0.68;;;19.70;99.90;;;;;;5009278;28;20053;-79
2022/07/11 12:35:58;;;;;;;0.43;0.43;;;19.70;99.90;;;;;;5014070;28;20475;-79
2022/07/11 12:38:24;;;;;;;0.57;0.57;;;19.70;99.90;;;;;;5007470;28;20045;-84
2022/07/11 12:41:03;;;;;;;0.50;0.50;;;19.70;99.90;;;;;;5010384;28;20034;-80
2022/07/11 12:46:24;;;;;;;0.50;0.50;;;19.70;99.90;;;;;;5009428;28;20050;-81
2022/07/11 12:48:51;;;;;;;1.98;0.55;;;19.70;99.90;;;;;;5013498;28;20038;-82
2022/07/11 12:51:31;;;;;;;0.40;0.40;;;19.70;99.90;;;;;;5011566;28;20041;-81
2022/07/11 12:54:04;;;;;;;0.32;0.32;;;19.70;99.90;;;;;;5003664;28;20044;-81
2022/07/11 12:56:29;;;;;;;0.30;0.25;;;19.70;99.90;;;;;;5015679;28;20049;-81
2022/07/11 12:58:55;;;;;;;0.55;0.40;;;19.70;99.90;;;;;;5012364;28;20045;-80
2022/07/11 13:01:21;;;;;;;0.80;0.70;;;19.70;99.90;;;;;;5014112;28;20718;-83
2022/07/11 13:03:47;;;;;;;0.63;0.63;;;19.60;99.90;;;;;;5014398;28;20046;-83